sensor_id;sensor_type;location;lat;lon;timestamp;P1;durP1;ratioP1;P2;durP2;ratioP2
21868;SDS011;11099;41.564;23.296;2023-08-12T00:00:15;3.83;;;2.97;;
21868;SDS011;11099;41.564;23.296;2023-08-12T00:02:42;4.25;;;2.63;;
21868;SDS011;11099;41.564;23.296;2023-08-12T00:05:08;3.38;;;2.80;;
21868;SDS011;11099;41.564;23.296;2023-08-12T00:07:37;3.17;;;2.88;;
21868;SDS011;11099;41.564;23.296;2023-08-12T00:10:05;4.88;;;3.10;;
21868;SDS011;11099;41.564;23.296;2023-08-12T00:12:31;3.25;;;2.95;;
21868;SDS011;11099;41.564;23.296;2023-08-12T00:14:58;3.35;;;3.03;;
21868;SDS011;11099;41.564;23.296;2023-08-12T00:17:23;3.35;;;3.13;;
21868;SDS011;11099;41.564;23.296;2023-08-12T00:19:49;3.20;;;2.90;;
21868;SDS011;11099;41.564;23.296;2023-08-12T00:22:14;3.38;;;3.17;;
21868;SDS011;11099;41.564;23.296;2023-08-12T00:24:40;6.57;;;3.15;;
21868;SDS011;11099;41.564;23.296;2023-08-12T00:27:06;6.60;;;3.47;;
21868;SDS011;11099;41.564;23.296;2023-08-12T00:29:32;3.92;;;3.60;;
21868;SDS011;11099;41.564;23.296;2023-08-12T00:31:58;3.30;;;3.10;;
21868;SDS011;11099;41.564;23.296;2023-08-12T00:34:23;3.55;;;3.25;;
21868;SDS011;11099;41.564;23.296;2023-08-12T00:36:49;3.33;;;3.13;;
21868;SDS011;11099;41.564;23.296;2023-08-12T00:39:14;4.43;;;3.30;;
21868;SDS011;11099;41.564;23.296;2023-08-12T00:41:40;3.25;;;3.00;;
21868;SDS011;11099;41.564;23.296;2023-08-12T00:44:06;3.70;;;2.95;;
21868;SDS011;11099;41.564;23.296;2023-08-12T00:46:31;3.22;;;2.97;;
21868;SDS011;11099;41.564;23.296;2023-08-12T00:48:58;3.75;;;3.40;;
21868;SDS011;11099;41.564;23.296;2023-08-12T00:51:24;5.68;;;2.97;;
21868;SDS011;11099;41.564;23.296;2023-08-12T00:53:50;4.70;;;2.88;;
21868;SDS011;11099;41.564;23.296;2023-08-12T00:56:16;4.97;;;3.13;;
21868;SDS011;11099;41.564;23.296;2023-08-12T00:58:43;6.10;;;3.30;;
21868;SDS011;11099;41.564;23.296;2023-08-12T01:01:08;5.10;;;3.10;;
21868;SDS011;11099;41.564;23.296;2023-08-12T01:03:36;4.15;;;3.05;;
21868;SDS011;11099;41.564;23.296;2023-08-12T01:06:02;4.53;;;3.53;;
21868;SDS011;11099;41.564;23.296;2023-08-12T01:08:28;4.03;;;3.17;;
21868;SDS011;11099;41.564;23.296;2023-08-12T01:11:02;4.45;;;3.67;;
21868;SDS011;11099;41.564;23.296;2023-08-12T01:13:58;3.65;;;3.30;;
21868;SDS011;11099;41.564;23.296;2023-08-12T01:16:47;5.10;;;3.10;;
21868;SDS011;11099;41.564;23.296;2023-08-12T01:19:33;5.30;;;3.50;;
21868;SDS011;11099;41.564;23.296;2023-08-12T01:22:00;3.15;;;3.03;;
21868;SDS011;11099;41.564;23.296;2023-08-12T01:24:33;3.35;;;3.08;;
21868;SDS011;11099;41.564;23.296;2023-08-12T01:27:00;4.32;;;3.08;;
21868;SDS011;11099;41.564;23.296;2023-08-12T01:29:26;4.28;;;3.35;;
21868;SDS011;11099;41.564;23.296;2023-08-12T01:31:54;4.43;;;3.10;;
21868;SDS011;11099;41.564;23.296;2023-08-12T01:34:33;3.80;;;3.10;;
21868;SDS011;11099;41.564;23.296;2023-08-12T01:37:08;3.47;;;3.28;;
21868;SDS011;11099;41.564;23.296;2023-08-12T01:42:02;3.58;;;3.38;;
21868;SDS011;11099;41.564;23.296;2023-08-12T01:44:28;4.85;;;3.72;;
21868;SDS011;11099;41.564;23.296;2023-08-12T01:46:54;3.60;;;3.30;;
21868;SDS011;11099;41.564;23.296;2023-08-12T01:49:20;3.70;;;3.40;;
21868;SDS011;11099;41.564;23.296;2023-08-12T01:51:45;5.43;;;3.15;;
21868;SDS011;11099;41.564;23.296;2023-08-12T01:54:11;3.67;;;3.17;;
21868;SDS011;11099;41.564;23.296;2023-08-12T01:56:36;7.15;;;3.40;;
21868;SDS011;11099;41.564;23.296;2023-08-12T01:59:02;3.67;;;2.88;;
21868;SDS011;11099;41.564;23.296;2023-08-12T02:01:27;3.63;;;3.20;;
21868;SDS011;11099;41.564;23.296;2023-08-12T02:03:52;3.40;;;3.20;;
21868;SDS011;11099;41.564;23.296;2023-08-12T02:06:18;4.45;;;2.92;;
21868;SDS011;11099;41.564;23.296;2023-08-12T02:08:44;3.38;;;3.17;;
21868;SDS011;11099;41.564;23.296;2023-08-12T02:11:10;3.60;;;3.30;;
21868;SDS011;11099;41.564;23.296;2023-08-12T02:13:35;3.30;;;3.00;;
21868;SDS011;11099;41.564;23.296;2023-08-12T02:16:01;3.85;;;3.50;;
21868;SDS011;11099;41.564;23.296;2023-08-12T02:18:26;3.28;;;3.08;;
21868;SDS011;11099;41.564;23.296;2023-08-12T02:20:51;2.97;;;2.78;;
21868;SDS011;11099;41.564;23.296;2023-08-12T02:23:17;3.25;;;3.05;;
21868;SDS011;11099;41.564;23.296;2023-08-12T02:25:42;3.58;;;3.30;;
21868;SDS011;11099;41.564;23.296;2023-08-12T02:28:08;4.10;;;3.03;;
21868;SDS011;11099;41.564;23.296;2023-08-12T02:30:34;3.58;;;3.28;;
21868;SDS011;11099;41.564;23.296;2023-08-12T02:32:59;3.45;;;3.25;;
21868;SDS011;11099;41.564;23.296;2023-08-12T02:35:24;4.93;;;3.50;;
21868;SDS011;11099;41.564;23.296;2023-08-12T02:37:50;3.97;;;3.58;;
21868;SDS011;11099;41.564;23.296;2023-08-12T02:40:16;4.13;;;3.10;;
21868;SDS011;11099;41.564;23.296;2023-08-12T02:42:41;3.50;;;3.20;;
21868;SDS011;11099;41.564;23.296;2023-08-12T02:45:07;3.30;;;3.03;;
21868;SDS011;11099;41.564;23.296;2023-08-12T02:47:32;3.47;;;3.28;;
21868;SDS011;11099;41.564;23.296;2023-08-12T02:49:58;4.43;;;3.20;;
21868;SDS011;11099;41.564;23.296;2023-08-12T02:52:23;4.18;;;3.20;;
21868;SDS011;11099;41.564;23.296;2023-08-12T02:54:49;3.97;;;3.28;;
21868;SDS011;11099;41.564;23.296;2023-08-12T02:57:15;3.47;;;3.08;;
21868;SDS011;11099;41.564;23.296;2023-08-12T02:59:40;4.63;;;3.28;;
21868;SDS011;11099;41.564;23.296;2023-08-12T03:02:06;3.08;;;2.88;;
21868;SDS011;11099;41.564;23.296;2023-08-12T03:04:31;3.25;;;3.00;;
21868;SDS011;11099;41.564;23.296;2023-08-12T03:06:57;4.75;;;3.47;;
21868;SDS011;11099;41.564;23.296;2023-08-12T03:09:22;4.20;;;3.78;;
21868;SDS011;11099;41.564;23.296;2023-08-12T03:11:48;3.80;;;3.50;;
21868;SDS011;11099;41.564;23.296;2023-08-12T03:14:13;3.40;;;3.20;;
21868;SDS011;11099;41.564;23.296;2023-08-12T03:16:39;3.85;;;3.55;;
21868;SDS011;11099;41.564;23.296;2023-08-12T03:19:05;3.70;;;3.50;;
21868;SDS011;11099;41.564;23.296;2023-08-12T03:21:30;3.63;;;3.33;;
21868;SDS011;11099;41.564;23.296;2023-08-12T03:23:56;3.78;;;3.47;;
21868;SDS011;11099;41.564;23.296;2023-08-12T03:26:21;3.58;;;3.28;;
21868;SDS011;11099;41.564;23.296;2023-08-12T03:28:47;3.75;;;3.20;;
21868;SDS011;11099;41.564;23.296;2023-08-12T03:31:12;4.18;;;3.30;;
21868;SDS011;11099;41.564;23.296;2023-08-12T03:33:38;4.25;;;3.45;;
21868;SDS011;11099;41.564;23.296;2023-08-12T03:36:03;3.80;;;3.60;;
21868;SDS011;11099;41.564;23.296;2023-08-12T03:38:29;3.78;;;3.47;;
21868;SDS011;11099;41.564;23.296;2023-08-12T03:40:54;3.78;;;3.45;;
21868;SDS011;11099;41.564;23.296;2023-08-12T03:43:20;3.95;;;3.65;;
21868;SDS011;11099;41.564;23.296;2023-08-12T03:45:45;3.90;;;3.50;;
21868;SDS011;11099;41.564;23.296;2023-08-12T03:48:12;5.40;;;3.10;;
21868;SDS011;11099;41.564;23.296;2023-08-12T03:50:37;3.97;;;3.67;;
21868;SDS011;11099;41.564;23.296;2023-08-12T03:53:03;3.53;;;3.22;;
21868;SDS011;11099;41.564;23.296;2023-08-12T03:55:30;4.35;;;3.95;;
21868;SDS011;11099;41.564;23.296;2023-08-12T03:57:57;3.90;;;3.40;;
21868;SDS011;11099;41.564;23.296;2023-08-12T04:00:23;3.45;;;3.20;;
21868;SDS011;11099;41.564;23.296;2023-08-12T04:02:48;5.88;;;3.40;;
21868;SDS011;11099;41.564;23.296;2023-08-12T04:05:13;3.72;;;3.42;;
21868;SDS011;11099;41.564;23.296;2023-08-12T04:07:39;4.35;;;3.33;;
21868;SDS011;11099;41.564;23.296;2023-08-12T04:10:05;4.57;;;3.63;;
21868;SDS011;11099;41.564;23.296;2023-08-12T04:12:31;3.40;;;3.20;;
21868;SDS011;11099;41.564;23.296;2023-08-12T04:14:57;3.40;;;3.20;;
21868;SDS011;11099;41.564;23.296;2023-08-12T04:17:22;3.30;;;3.00;;
21868;SDS011;11099;41.564;23.296;2023-08-12T04:19:48;3.47;;;3.15;;
21868;SDS011;11099;41.564;23.296;2023-08-12T04:22:14;4.00;;;2.80;;
21868;SDS011;11099;41.564;23.296;2023-08-12T04:24:40;3.10;;;2.90;;
21868;SDS011;11099;41.564;23.296;2023-08-12T04:27:05;3.60;;;3.30;;
21868;SDS011;11099;41.564;23.296;2023-08-12T04:29:31;3.65;;;3.40;;
21868;SDS011;11099;41.564;23.296;2023-08-12T04:31:56;6.00;;;3.50;;
21868;SDS011;11099;41.564;23.296;2023-08-12T04:34:22;3.50;;;3.30;;
21868;SDS011;11099;41.564;23.296;2023-08-12T04:36:47;3.70;;;3.47;;
21868;SDS011;11099;41.564;23.296;2023-08-12T04:39:13;3.72;;;3.35;;
21868;SDS011;11099;41.564;23.296;2023-08-12T04:41:38;5.63;;;3.70;;
21868;SDS011;11099;41.564;23.296;2023-08-12T04:44:04;3.85;;;3.55;;
21868;SDS011;11099;41.564;23.296;2023-08-12T04:46:30;3.75;;;3.45;;
21868;SDS011;11099;41.564;23.296;2023-08-12T04:48:56;3.28;;;3.08;;
21868;SDS011;11099;41.564;23.296;2023-08-12T04:51:21;3.55;;;3.25;;
21868;SDS011;11099;41.564;23.296;2023-08-12T04:53:47;4.15;;;3.75;;
21868;SDS011;11099;41.564;23.296;2023-08-12T04:56:12;3.55;;;3.25;;
21868;SDS011;11099;41.564;23.296;2023-08-12T04:58:38;3.50;;;3.30;;
21868;SDS011;11099;41.564;23.296;2023-08-12T05:01:03;3.80;;;3.50;;
21868;SDS011;11099;41.564;23.296;2023-08-12T05:03:29;3.83;;;3.33;;
21868;SDS011;11099;41.564;23.296;2023-08-12T05:05:54;4.43;;;3.13;;
21868;SDS011;11099;41.564;23.296;2023-08-12T05:08:20;3.92;;;3.58;;
21868;SDS011;11099;41.564;23.296;2023-08-12T05:10:49;3.60;;;3.30;;
21868;SDS011;11099;41.564;23.296;2023-08-12T05:13:14;3.72;;;2.92;;
21868;SDS011;11099;41.564;23.296;2023-08-12T05:15:40;5.20;;;2.90;;
21868;SDS011;11099;41.564;23.296;2023-08-12T05:18:06;2.58;;;2.47;;
21868;SDS011;11099;41.564;23.296;2023-08-12T05:20:31;2.50;;;2.40;;
21868;SDS011;11099;41.564;23.296;2023-08-12T05:22:57;2.63;;;2.22;;
21868;SDS011;11099;41.564;23.296;2023-08-12T05:25:22;3.03;;;2.72;;
21868;SDS011;11099;41.564;23.296;2023-08-12T05:27:49;2.20;;;2.10;;
21868;SDS011;11099;41.564;23.296;2023-08-12T05:30:14;3.17;;;2.80;;
21868;SDS011;11099;41.564;23.296;2023-08-12T05:32:40;4.00;;;2.50;;
21868;SDS011;11099;41.564;23.296;2023-08-12T05:35:06;3.17;;;2.72;;
21868;SDS011;11099;41.564;23.296;2023-08-12T05:37:31;2.42;;;2.22;;
21868;SDS011;11099;41.564;23.296;2023-08-12T05:39:57;4.47;;;2.78;;
21868;SDS011;11099;41.564;23.296;2023-08-12T05:42:22;3.15;;;2.40;;
21868;SDS011;11099;41.564;23.296;2023-08-12T05:44:48;2.75;;;2.55;;
21868;SDS011;11099;41.564;23.296;2023-08-12T05:47:13;2.92;;;2.72;;
21868;SDS011;11099;41.564;23.296;2023-08-12T05:49:38;2.72;;;2.50;;
21868;SDS011;11099;41.564;23.296;2023-08-12T05:52:04;3.28;;;3.08;;
21868;SDS011;11099;41.564;23.296;2023-08-12T05:54:30;2.85;;;2.55;;
21868;SDS011;11099;41.564;23.296;2023-08-12T05:56:55;4.85;;;4.03;;
21868;SDS011;11099;41.564;23.296;2023-08-12T05:59:21;3.50;;;3.30;;
21868;SDS011;11099;41.564;23.296;2023-08-12T06:01:46;3.72;;;3.05;;
21868;SDS011;11099;41.564;23.296;2023-08-12T06:04:12;2.88;;;2.65;;
21868;SDS011;11099;41.564;23.296;2023-08-12T06:06:37;3.40;;;2.67;;
21868;SDS011;11099;41.564;23.296;2023-08-12T06:09:03;2.60;;;2.42;;
21868;SDS011;11099;41.564;23.296;2023-08-12T06:11:28;2.70;;;2.50;;
21868;SDS011;11099;41.564;23.296;2023-08-12T06:13:54;3.65;;;2.65;;
21868;SDS011;11099;41.564;23.296;2023-08-12T06:16:21;2.83;;;2.05;;
21868;SDS011;11099;41.564;23.296;2023-08-12T06:18:46;3.25;;;2.60;;
21868;SDS011;11099;41.564;23.296;2023-08-12T06:21:12;2.65;;;2.40;;
21868;SDS011;11099;41.564;23.296;2023-08-12T06:23:37;2.45;;;2.35;;
21868;SDS011;11099;41.564;23.296;2023-08-12T06:26:03;3.78;;;2.55;;
21868;SDS011;11099;41.564;23.296;2023-08-12T06:28:28;2.35;;;2.25;;
21868;SDS011;11099;41.564;23.296;2023-08-12T06:30:54;2.80;;;2.60;;
21868;SDS011;11099;41.564;23.296;2023-08-12T06:33:19;4.25;;;2.40;;
21868;SDS011;11099;41.564;23.296;2023-08-12T06:35:45;2.97;;;2.65;;
21868;SDS011;11099;41.564;23.296;2023-08-12T06:38:10;4.93;;;2.63;;
21868;SDS011;11099;41.564;23.296;2023-08-12T06:40:37;2.90;;;2.53;;
21868;SDS011;11099;41.564;23.296;2023-08-12T06:43:03;2.85;;;2.47;;
21868;SDS011;11099;41.564;23.296;2023-08-12T06:45:29;2.85;;;2.65;;
21868;SDS011;11099;41.564;23.296;2023-08-12T06:47:54;2.78;;;2.42;;
21868;SDS011;11099;41.564;23.296;2023-08-12T06:50:20;2.78;;;2.58;;
21868;SDS011;11099;41.564;23.296;2023-08-12T06:52:45;4.10;;;2.85;;
21868;SDS011;11099;41.564;23.296;2023-08-12T06:55:11;2.67;;;2.47;;
21868;SDS011;11099;41.564;23.296;2023-08-12T06:57:36;3.83;;;3.15;;
21868;SDS011;11099;41.564;23.296;2023-08-12T07:00:02;2.80;;;2.60;;
21868;SDS011;11099;41.564;23.296;2023-08-12T07:02:30;2.92;;;2.72;;
21868;SDS011;11099;41.564;23.296;2023-08-12T07:04:55;5.10;;;3.20;;
21868;SDS011;11099;41.564;23.296;2023-08-12T07:07:21;4.40;;;3.13;;
21868;SDS011;11099;41.564;23.296;2023-08-12T07:09:47;3.72;;;3.33;;
21868;SDS011;11099;41.564;23.296;2023-08-12T07:12:12;5.47;;;2.70;;
21868;SDS011;11099;41.564;23.296;2023-08-12T07:14:38;3.67;;;3.03;;
21868;SDS011;11099;41.564;23.296;2023-08-12T07:17:03;3.00;;;2.80;;
21868;SDS011;11099;41.564;23.296;2023-08-12T07:19:29;4.05;;;3.00;;
21868;SDS011;11099;41.564;23.296;2023-08-12T07:21:54;4.00;;;3.20;;
21868;SDS011;11099;41.564;23.296;2023-08-12T07:24:20;3.78;;;3.47;;
21868;SDS011;11099;41.564;23.296;2023-08-12T07:26:45;5.63;;;2.85;;
21868;SDS011;11099;41.564;23.296;2023-08-12T07:29:11;6.80;;;3.05;;
21868;SDS011;11099;41.564;23.296;2023-08-12T07:31:36;2.65;;;2.45;;
21868;SDS011;11099;41.564;23.296;2023-08-12T07:34:01;3.88;;;3.00;;
21868;SDS011;11099;41.564;23.296;2023-08-12T07:36:27;2.50;;;2.40;;
21868;SDS011;11099;41.564;23.296;2023-08-12T07:38:53;3.60;;;2.65;;
21868;SDS011;11099;41.564;23.296;2023-08-12T07:41:19;2.95;;;2.83;;
21868;SDS011;11099;41.564;23.296;2023-08-12T07:43:44;2.70;;;2.60;;
21868;SDS011;11099;41.564;23.296;2023-08-12T07:46:10;3.63;;;2.20;;
21868;SDS011;11099;41.564;23.296;2023-08-12T07:48:35;3.33;;;2.97;;
21868;SDS011;11099;41.564;23.296;2023-08-12T07:51:01;3.33;;;2.50;;
21868;SDS011;11099;41.564;23.296;2023-08-12T07:53:27;3.33;;;2.60;;
21868;SDS011;11099;41.564;23.296;2023-08-12T07:55:52;2.58;;;2.38;;
21868;SDS011;11099;41.564;23.296;2023-08-12T07:58:18;2.90;;;2.70;;
21868;SDS011;11099;41.564;23.296;2023-08-12T08:00:43;3.22;;;2.80;;
21868;SDS011;11099;41.564;23.296;2023-08-12T08:03:09;3.83;;;2.55;;
21868;SDS011;11099;41.564;23.296;2023-08-12T08:05:34;4.15;;;2.78;;
21868;SDS011;11099;41.564;23.296;2023-08-12T08:08:00;4.63;;;2.92;;
21868;SDS011;11099;41.564;23.296;2023-08-12T08:10:25;2.97;;;2.78;;
21868;SDS011;11099;41.564;23.296;2023-08-12T08:12:51;3.45;;;2.53;;
21868;SDS011;11099;41.564;23.296;2023-08-12T08:15:16;3.08;;;2.75;;
21868;SDS011;11099;41.564;23.296;2023-08-12T08:17:42;2.88;;;2.60;;
21868;SDS011;11099;41.564;23.296;2023-08-12T08:20:07;3.30;;;3.00;;
21868;SDS011;11099;41.564;23.296;2023-08-12T08:22:35;4.38;;;2.90;;
21868;SDS011;11099;41.564;23.296;2023-08-12T08:25:00;3.05;;;2.75;;
21868;SDS011;11099;41.564;23.296;2023-08-12T08:27:26;2.92;;;2.72;;
21868;SDS011;11099;41.564;23.296;2023-08-12T08:29:51;2.70;;;2.50;;
21868;SDS011;11099;41.564;23.296;2023-08-12T08:32:17;3.50;;;3.20;;
21868;SDS011;11099;41.564;23.296;2023-08-12T08:34:42;4.35;;;3.95;;
21868;SDS011;11099;41.564;23.296;2023-08-12T08:37:08;3.17;;;2.60;;
21868;SDS011;11099;41.564;23.296;2023-08-12T08:39:33;2.53;;;2.33;;
21868;SDS011;11099;41.564;23.296;2023-08-12T08:41:59;4.43;;;3.08;;
21868;SDS011;11099;41.564;23.296;2023-08-12T08:44:26;3.08;;;2.85;;
21868;SDS011;11099;41.564;23.296;2023-08-12T08:46:54;4.88;;;2.50;;
21868;SDS011;11099;41.564;23.296;2023-08-12T08:49:20;3.70;;;2.63;;
21868;SDS011;11099;41.564;23.296;2023-08-12T08:51:48;2.60;;;2.40;;
21868;SDS011;11099;41.564;23.296;2023-08-12T08:54:15;2.67;;;2.47;;
21868;SDS011;11099;41.564;23.296;2023-08-12T08:56:40;7.28;;;2.65;;
21868;SDS011;11099;41.564;23.296;2023-08-12T08:59:06;2.78;;;2.58;;
21868;SDS011;11099;41.564;23.296;2023-08-12T09:01:32;2.85;;;2.65;;
21868;SDS011;11099;41.564;23.296;2023-08-12T09:03:59;2.65;;;2.30;;
21868;SDS011;11099;41.564;23.296;2023-08-12T09:06:25;4.40;;;2.65;;
21868;SDS011;11099;41.564;23.296;2023-08-12T09:08:51;3.10;;;2.80;;
21868;SDS011;11099;41.564;23.296;2023-08-12T09:11:18;3.95;;;3.58;;
21868;SDS011;11099;41.564;23.296;2023-08-12T09:13:45;3.03;;;2.83;;
21868;SDS011;11099;41.564;23.296;2023-08-12T09:16:11;2.85;;;2.65;;
21868;SDS011;11099;41.564;23.296;2023-08-12T09:18:36;3.13;;;2.20;;
21868;SDS011;11099;41.564;23.296;2023-08-12T09:21:03;2.75;;;2.55;;
21868;SDS011;11099;41.564;23.296;2023-08-12T09:23:33;2.70;;;2.50;;
21868;SDS011;11099;41.564;23.296;2023-08-12T09:26:19;2.80;;;2.60;;
21868;SDS011;11099;41.564;23.296;2023-08-12T09:28:46;3.45;;;2.65;;
21868;SDS011;11099;41.564;23.296;2023-08-12T09:31:26;3.67;;;2.53;;
21868;SDS011;11099;41.564;23.296;2023-08-12T09:33:59;2.60;;;2.50;;
21868;SDS011;11099;41.564;23.296;2023-08-12T09:36:30;4.90;;;2.70;;
21868;SDS011;11099;41.564;23.296;2023-08-12T09:38:56;4.50;;;2.60;;
21868;SDS011;11099;41.564;23.296;2023-08-12T09:41:24;3.45;;;2.47;;
21868;SDS011;11099;41.564;23.296;2023-08-12T09:43:51;3.00;;;2.63;;
21868;SDS011;11099;41.564;23.296;2023-08-12T09:46:18;4.68;;;3.13;;
21868;SDS011;11099;41.564;23.296;2023-08-12T09:48:48;3.40;;;3.10;;
21868;SDS011;11099;41.564;23.296;2023-08-12T09:51:15;5.32;;;3.08;;
21868;SDS011;11099;41.564;23.296;2023-08-12T09:53:42;2.60;;;2.40;;
21868;SDS011;11099;41.564;23.296;2023-08-12T09:56:07;2.70;;;2.50;;
21868;SDS011;11099;41.564;23.296;2023-08-12T09:58:36;3.25;;;2.95;;
21868;SDS011;11099;41.564;23.296;2023-08-12T10:01:05;2.92;;;2.72;;
21868;SDS011;11099;41.564;23.296;2023-08-12T10:03:33;4.03;;;2.85;;
21868;SDS011;11099;41.564;23.296;2023-08-12T10:06:00;4.18;;;2.90;;
21868;SDS011;11099;41.564;23.296;2023-08-12T10:08:27;4.70;;;3.15;;
21868;SDS011;11099;41.564;23.296;2023-08-12T10:10:53;2.85;;;2.65;;
21868;SDS011;11099;41.564;23.296;2023-08-12T10:13:20;2.80;;;2.60;;
21868;SDS011;11099;41.564;23.296;2023-08-12T10:15:46;3.78;;;2.53;;
21868;SDS011;11099;41.564;23.296;2023-08-12T10:18:12;2.40;;;2.30;;
21868;SDS011;11099;41.564;23.296;2023-08-12T10:20:39;2.78;;;2.58;;
21868;SDS011;11099;41.564;23.296;2023-08-12T10:23:05;2.55;;;2.40;;
21868;SDS011;11099;41.564;23.296;2023-08-12T10:25:32;2.50;;;2.40;;
21868;SDS011;11099;41.564;23.296;2023-08-12T10:28:01;3.60;;;2.70;;
21868;SDS011;11099;41.564;23.296;2023-08-12T10:30:29;4.22;;;2.67;;
21868;SDS011;11099;41.564;23.296;2023-08-12T10:32:56;3.92;;;2.30;;
21868;SDS011;11099;41.564;23.296;2023-08-12T10:35:23;3.40;;;2.47;;
21868;SDS011;11099;41.564;23.296;2023-08-12T10:37:49;2.60;;;2.40;;
21868;SDS011;11099;41.564;23.296;2023-08-12T10:40:22;4.28;;;2.63;;
21868;SDS011;11099;41.564;23.296;2023-08-12T10:42:48;2.40;;;2.20;;
21868;SDS011;11099;41.564;23.296;2023-08-12T10:45:15;2.25;;;2.00;;
21868;SDS011;11099;41.564;23.296;2023-08-12T10:47:43;4.05;;;2.78;;
21868;SDS011;11099;41.564;23.296;2023-08-12T10:50:20;6.25;;;2.10;;
21868;SDS011;11099;41.564;23.296;2023-08-12T10:52:47;3.55;;;2.05;;
21868;SDS011;11099;41.564;23.296;2023-08-12T10:55:22;2.45;;;2.25;;
21868;SDS011;11099;41.564;23.296;2023-08-12T10:57:49;2.03;;;1.83;;
21868;SDS011;11099;41.564;23.296;2023-08-12T11:00:17;1.92;;;1.80;;
21868;SDS011;11099;41.564;23.296;2023-08-12T11:02:50;3.67;;;2.20;;
21868;SDS011;11099;41.564;23.296;2023-08-12T11:05:17;2.75;;;2.20;;
21868;SDS011;11099;41.564;23.296;2023-08-12T11:10:31;4.50;;;2.38;;
21868;SDS011;11099;41.564;23.296;2023-08-12T11:12:58;2.50;;;2.30;;
21868;SDS011;11099;41.564;23.296;2023-08-12T11:15:39;2.92;;;2.10;;
21868;SDS011;11099;41.564;23.296;2023-08-12T11:18:14;2.47;;;2.22;;
21868;SDS011;11099;41.564;23.296;2023-08-12T11:20:42;2.30;;;2.20;;
21868;SDS011;11099;41.564;23.296;2023-08-12T11:23:09;2.28;;;2.08;;
21868;SDS011;11099;41.564;23.296;2023-08-12T11:25:37;3.05;;;2.00;;
21868;SDS011;11099;41.564;23.296;2023-08-12T11:28:04;2.30;;;2.20;;
21868;SDS011;11099;41.564;23.296;2023-08-12T11:30:30;2.47;;;2.22;;
21868;SDS011;11099;41.564;23.296;2023-08-12T11:32:56;1.98;;;1.88;;
21868;SDS011;11099;41.564;23.296;2023-08-12T11:35:23;7.05;;;2.00;;
21868;SDS011;11099;41.564;23.296;2023-08-12T11:37:51;2.25;;;2.00;;
21868;SDS011;11099;41.564;23.296;2023-08-12T11:40:18;3.83;;;2.00;;
21868;SDS011;11099;41.564;23.296;2023-08-12T11:42:45;2.63;;;2.00;;
21868;SDS011;11099;41.564;23.296;2023-08-12T11:45:13;4.25;;;2.08;;
21868;SDS011;11099;41.564;23.296;2023-08-12T11:47:39;2.08;;;1.98;;
21868;SDS011;11099;41.564;23.296;2023-08-12T11:50:07;2.72;;;2.03;;
21868;SDS011;11099;41.564;23.296;2023-08-12T11:52:34;2.92;;;2.40;;
21868;SDS011;11099;41.564;23.296;2023-08-12T11:55:01;3.55;;;3.25;;
21868;SDS011;11099;41.564;23.296;2023-08-12T11:57:28;2.38;;;2.08;;
21868;SDS011;11099;41.564;23.296;2023-08-12T12:00:01;2.85;;;2.55;;
21868;SDS011;11099;41.564;23.296;2023-08-12T12:02:34;3.15;;;2.33;;
21868;SDS011;11099;41.564;23.296;2023-08-12T12:05:05;5.13;;;2.30;;
21868;SDS011;11099;41.564;23.296;2023-08-12T12:07:33;2.13;;;1.92;;
21868;SDS011;11099;41.564;23.296;2023-08-12T12:09:58;2.13;;;2.00;;
21868;SDS011;11099;41.564;23.296;2023-08-12T12:12:24;2.90;;;2.15;;
21868;SDS011;11099;41.564;23.296;2023-08-12T12:14:53;4.20;;;2.33;;
21868;SDS011;11099;41.564;23.296;2023-08-12T12:17:22;2.30;;;2.20;;
21868;SDS011;11099;41.564;23.296;2023-08-12T12:19:52;2.25;;;2.15;;
21868;SDS011;11099;41.564;23.296;2023-08-12T12:22:27;2.13;;;1.98;;
21868;SDS011;11099;41.564;23.296;2023-08-12T12:25:00;3.35;;;2.30;;
21868;SDS011;11099;41.564;23.296;2023-08-12T12:27:31;4.75;;;2.13;;
21868;SDS011;11099;41.564;23.296;2023-08-12T12:29:57;2.97;;;2.20;;
21868;SDS011;11099;41.564;23.296;2023-08-12T12:32:22;2.20;;;2.10;;
21868;SDS011;11099;41.564;23.296;2023-08-12T12:34:48;2.13;;;2.03;;
21868;SDS011;11099;41.564;23.296;2023-08-12T12:37:14;2.20;;;2.05;;
21868;SDS011;11099;41.564;23.296;2023-08-12T12:39:40;2.75;;;2.30;;
21868;SDS011;11099;41.564;23.296;2023-08-12T12:42:05;3.78;;;2.33;;
21868;SDS011;11099;41.564;23.296;2023-08-12T12:44:32;2.47;;;2.00;;
21868;SDS011;11099;41.564;23.296;2023-08-12T12:47:01;2.20;;;2.10;;
21868;SDS011;11099;41.564;23.296;2023-08-12T12:49:28;2.60;;;2.40;;
21868;SDS011;11099;41.564;23.296;2023-08-12T12:51:53;2.30;;;2.20;;
21868;SDS011;11099;41.564;23.296;2023-08-12T12:54:19;2.17;;;2.08;;
21868;SDS011;11099;41.564;23.296;2023-08-12T12:56:44;2.55;;;1.90;;
21868;SDS011;11099;41.564;23.296;2023-08-12T12:59:10;3.00;;;1.70;;
21868;SDS011;11099;41.564;23.296;2023-08-12T13:01:36;2.35;;;2.20;;
21868;SDS011;11099;41.564;23.296;2023-08-12T13:04:01;2.10;;;1.88;;
21868;SDS011;11099;41.564;23.296;2023-08-12T13:06:27;4.30;;;2.38;;
21868;SDS011;11099;41.564;23.296;2023-08-12T13:08:53;2.28;;;1.90;;
21868;SDS011;11099;41.564;23.296;2023-08-12T13:11:19;2.17;;;2.05;;
21868;SDS011;11099;41.564;23.296;2023-08-12T13:13:44;2.28;;;2.08;;
21868;SDS011;11099;41.564;23.296;2023-08-12T13:16:10;2.30;;;1.90;;
21868;SDS011;11099;41.564;23.296;2023-08-12T13:18:35;2.20;;;2.10;;
21868;SDS011;11099;41.564;23.296;2023-08-12T13:21:01;2.03;;;1.92;;
21868;SDS011;11099;41.564;23.296;2023-08-12T13:23:26;2.90;;;2.70;;
21868;SDS011;11099;41.564;23.296;2023-08-12T13:25:52;2.10;;;2.00;;
21868;SDS011;11099;41.564;23.296;2023-08-12T13:28:17;1.63;;;1.52;;
21868;SDS011;11099;41.564;23.296;2023-08-12T13:30:44;2.50;;;1.80;;
21868;SDS011;11099;41.564;23.296;2023-08-12T13:33:09;2.20;;;2.10;;
21868;SDS011;11099;41.564;23.296;2023-08-12T13:35:35;1.80;;;1.70;;
21868;SDS011;11099;41.564;23.296;2023-08-12T13:38:00;1.70;;;1.60;;
21868;SDS011;11099;41.564;23.296;2023-08-12T13:40:26;3.35;;;1.48;;
21868;SDS011;11099;41.564;23.296;2023-08-12T13:42:51;1.80;;;1.70;;
21868;SDS011;11099;41.564;23.296;2023-08-12T13:45:17;2.05;;;1.95;;
21868;SDS011;11099;41.564;23.296;2023-08-12T13:47:42;2.72;;;1.90;;
21868;SDS011;11099;41.564;23.296;2023-08-12T13:50:08;2.38;;;2.00;;
21868;SDS011;11099;41.564;23.296;2023-08-12T13:52:34;1.85;;;1.75;;
21868;SDS011;11099;41.564;23.296;2023-08-12T13:54:59;2.08;;;1.88;;
21868;SDS011;11099;41.564;23.296;2023-08-12T13:57:25;2.10;;;1.90;;
21868;SDS011;11099;41.564;23.296;2023-08-12T13:59:51;1.85;;;1.75;;
21868;SDS011;11099;41.564;23.296;2023-08-12T14:02:16;2.05;;;1.95;;
21868;SDS011;11099;41.564;23.296;2023-08-12T14:04:42;1.70;;;1.60;;
21868;SDS011;11099;41.564;23.296;2023-08-12T14:07:07;3.38;;;1.75;;
21868;SDS011;11099;41.564;23.296;2023-08-12T14:09:33;2.63;;;1.70;;
21868;SDS011;11099;41.564;23.296;2023-08-12T14:11:59;2.03;;;1.92;;
21868;SDS011;11099;41.564;23.296;2023-08-12T14:14:25;4.00;;;1.70;;
21868;SDS011;11099;41.564;23.296;2023-08-12T14:16:54;2.92;;;2.03;;
21868;SDS011;11099;41.564;23.296;2023-08-12T14:19:19;2.45;;;2.15;;
21868;SDS011;11099;41.564;23.296;2023-08-12T14:21:45;2.92;;;2.30;;
21868;SDS011;11099;41.564;23.296;2023-08-12T14:24:11;1.77;;;1.67;;
21868;SDS011;11099;41.564;23.296;2023-08-12T14:26:38;3.25;;;2.50;;
21868;SDS011;11099;41.564;23.296;2023-08-12T14:29:03;2.13;;;2.00;;
21868;SDS011;11099;41.564;23.296;2023-08-12T14:31:29;2.13;;;1.70;;
21868;SDS011;11099;41.564;23.296;2023-08-12T14:33:54;1.75;;;1.65;;